sensor_id;sensor_type;location;lat;lon;timestamp;temperature;humidity
72380;SHT30;60354;47.798;12.472;2022-11-15T00:00:33;8.20;71.36
72380;SHT30;60354;47.798;12.472;2022-11-15T00:03:22;8.12;71.60
72380;SHT30;60354;47.798;12.472;2022-11-15T00:06:06;8.15;71.24
72380;SHT30;60354;47.798;12.472;2022-11-15T00:08:50;8.09;71.65
72380;SHT30;60354;47.798;12.472;2022-11-15T00:11:34;8.08;71.45
72380;SHT30;60354;47.798;12.472;2022-11-15T00:14:18;8.11;71.35
72380;SHT30;60354;47.798;12.472;2022-11-15T00:17:05;8.11;71.21
72380;SHT30;60354;47.798;12.472;2022-11-15T00:19:53;8.11;71.24
72380;SHT30;60354;47.798;12.472;2022-11-15T00:22:40;8.05;71.17
72380;SHT30;60354;47.798;12.472;2022-11-15T00:25:24;8.01;71.50
72380;SHT30;60354;47.798;12.472;2022-11-15T00:28:08;8.02;71.02
72380;SHT30;60354;47.798;12.472;2022-11-15T00:30:51;7.99;71.24
72380;SHT30;60354;47.798;12.472;2022-11-15T00:33:36;7.95;71.57
72380;SHT30;60354;47.798;12.472;2022-11-15T00:36:19;7.91;71.72
72380;SHT30;60354;47.798;12.472;2022-11-15T00:39:04;7.87;71.67
72380;SHT30;60354;47.798;12.472;2022-11-15T00:41:49;7.84;72.16
72380;SHT30;60354;47.798;12.472;2022-11-15T00:44:33;7.77;71.78
72380;SHT30;60354;47.798;12.472;2022-11-15T00:47:17;7.70;71.95
72380;SHT30;60354;47.798;12.472;2022-11-15T00:50:01;7.63;72.10
72380;SHT30;60354;47.798;12.472;2022-11-15T00:52:45;7.63;72.07
72380;SHT30;60354;47.798;12.472;2022-11-15T00:55:29;7.59;72.43
72380;SHT30;60354;47.798;12.472;2022-11-15T00:58:16;7.57;72.14
72380;SHT30;60354;47.798;12.472;2022-11-15T01:01:10;7.59;72.02
72380;SHT30;60354;47.798;12.472;2022-11-15T01:03:55;7.56;72.04
72380;SHT30;60354;47.798;12.472;2022-11-15T01:06:39;7.53;72.35
72380;SHT30;60354;47.798;12.472;2022-11-15T01:09:23;7.57;72.17
72380;SHT30;60354;47.798;12.472;2022-11-15T01:12:07;7.50;72.22
72380;SHT30;60354;47.798;12.472;2022-11-15T01:14:54;7.50;72.21
72380;SHT30;60354;47.798;12.472;2022-11-15T01:17:38;7.47;72.35
72380;SHT30;60354;47.798;12.472;2022-11-15T01:20:22;7.43;72.34
72380;SHT30;60354;47.798;12.472;2022-11-15T01:23:06;7.43;72.29
72380;SHT30;60354;47.798;12.472;2022-11-15T01:25:50;7.44;72.16
72380;SHT30;60354;47.798;12.472;2022-11-15T01:28:39;7.42;72.30
72380;SHT30;60354;47.798;12.472;2022-11-15T01:31:23;7.43;72.05
72380;SHT30;60354;47.798;12.472;2022-11-15T01:34:07;7.44;71.98
72380;SHT30;60354;47.798;12.472;2022-11-15T01:36:51;7.44;71.88
72380;SHT30;60354;47.798;12.472;2022-11-15T01:39:35;7.50;71.44
72380;SHT30;60354;47.798;12.472;2022-11-15T01:42:19;7.53;71.48
72380;SHT30;60354;47.798;12.472;2022-11-15T01:45:04;7.54;71.44
72380;SHT30;60354;47.798;12.472;2022-11-15T01:47:52;7.59;71.40
72380;SHT30;60354;47.798;12.472;2022-11-15T01:50:36;7.63;70.97
72380;SHT30;60354;47.798;12.472;2022-11-15T01:53:22;7.63;71.11
72380;SHT30;60354;47.798;12.472;2022-11-15T01:56:10;7.62;71.30
72380;SHT30;60354;47.798;12.472;2022-11-15T01:58:57;7.62;71.27
72380;SHT30;60354;47.798;12.472;2022-11-15T02:01:42;7.67;70.98
72380;SHT30;60354;47.798;12.472;2022-11-15T02:04:37;7.70;70.48
72380;SHT30;60354;47.798;12.472;2022-11-15T02:07:23;7.69;70.70
72380;SHT30;60354;47.798;12.472;2022-11-15T02:10:11;7.70;70.59
72380;SHT30;60354;47.798;12.472;2022-11-15T02:12:56;7.66;71.38
72380;SHT30;60354;47.798;12.472;2022-11-15T02:15:54;7.60;71.39
72380;SHT30;60354;47.798;12.472;2022-11-15T02:18:49;7.59;71.58
72380;SHT30;60354;47.798;12.472;2022-11-15T02:21:59;7.57;71.44
72380;SHT30;60354;47.798;12.472;2022-11-15T02:31:04;7.47;71.40
72380;SHT30;60354;47.798;12.472;2022-11-15T02:37:34;7.47;71.25
72380;SHT30;60354;47.798;12.472;2022-11-15T02:43:21;7.42;71.29
72380;SHT30;60354;47.798;12.472;2022-11-15T02:46:45;7.49;70.57
72380;SHT30;60354;47.798;12.472;2022-11-15T02:49:52;7.59;69.82
72380;SHT30;60354;47.798;12.472;2022-11-15T02:52:37;7.63;69.52
72380;SHT30;60354;47.798;12.472;2022-11-15T02:55:32;7.67;69.34
72380;SHT30;60354;47.798;12.472;2022-11-15T03:04:55;7.69;69.26
72380;SHT30;60354;47.798;12.472;2022-11-15T03:07:54;7.63;69.40
72380;SHT30;60354;47.798;12.472;2022-11-15T03:10:57;7.57;69.70
72380;SHT30;60354;47.798;12.472;2022-11-15T03:17:14;7.47;69.94
72380;SHT30;60354;47.798;12.472;2022-11-15T03:20:01;7.47;69.92
72380;SHT30;60354;47.798;12.472;2022-11-15T03:22:49;7.43;70.06
72380;SHT30;60354;47.798;12.472;2022-11-15T03:25:38;7.37;70.29
72380;SHT30;60354;47.798;12.472;2022-11-15T03:28:30;7.36;70.16
72380;SHT30;60354;47.798;12.472;2022-11-15T03:31:16;7.37;70.19
72380;SHT30;60354;47.798;12.472;2022-11-15T03:34:52;7.39;69.78
72380;SHT30;60354;47.798;12.472;2022-11-15T03:37:48;7.43;69.72
72380;SHT30;60354;47.798;12.472;2022-11-15T03:40:40;7.44;69.48
72380;SHT30;60354;47.798;12.472;2022-11-15T03:43:44;7.42;69.65
72380;SHT30;60354;47.798;12.472;2022-11-15T03:46:34;7.42;69.68
72380;SHT30;60354;47.798;12.472;2022-11-15T03:49:35;7.33;69.98
72380;SHT30;60354;47.798;12.472;2022-11-15T03:52:21;7.23;70.60
72380;SHT30;60354;47.798;12.472;2022-11-15T03:55:07;7.12;70.95
72380;SHT30;60354;47.798;12.472;2022-11-15T03:57:55;7.08;71.03
72380;SHT30;60354;47.798;12.472;2022-11-15T04:00:40;7.06;71.24
72380;SHT30;60354;47.798;12.472;2022-11-15T04:03:25;7.03;71.50
72380;SHT30;60354;47.798;12.472;2022-11-15T04:06:08;7.01;71.64
72380;SHT30;60354;47.798;12.472;2022-11-15T04:08:53;6.95;71.48
72380;SHT30;60354;47.798;12.472;2022-11-15T04:11:37;6.96;71.15
72380;SHT30;60354;47.798;12.472;2022-11-15T04:14:21;6.96;71.18
72380;SHT30;60354;47.798;12.472;2022-11-15T04:17:04;6.99;71.17
72380;SHT30;60354;47.798;12.472;2022-11-15T04:19:48;7.01;71.61
72380;SHT30;60354;47.798;12.472;2022-11-15T04:22:53;6.96;71.65
72380;SHT30;60354;47.798;12.472;2022-11-15T04:25:58;6.92;71.92
72380;SHT30;60354;47.798;12.472;2022-11-15T04:28:43;6.89;72.12
72380;SHT30;60354;47.798;12.472;2022-11-15T04:31:46;6.93;71.44
72380;SHT30;60354;47.798;12.472;2022-11-15T04:34:30;6.93;72.01
72380;SHT30;60354;47.798;12.472;2022-11-15T04:37:13;6.93;71.82
72380;SHT30;60354;47.798;12.472;2022-11-15T04:39:58;6.95;71.82
72380;SHT30;60354;47.798;12.472;2022-11-15T04:42:42;6.98;72.03
72380;SHT30;60354;47.798;12.472;2022-11-15T04:45:26;7.01;70.85
72380;SHT30;60354;47.798;12.472;2022-11-15T04:48:10;7.06;70.72
72380;SHT30;60354;47.798;12.472;2022-11-15T04:50:54;7.11;70.21
72380;SHT30;60354;47.798;12.472;2022-11-15T04:53:38;7.11;70.02
72380;SHT30;60354;47.798;12.472;2022-11-15T04:56:23;7.19;69.55
72380;SHT30;60354;47.798;12.472;2022-11-15T04:59:06;7.16;69.87
72380;SHT30;60354;47.798;12.472;2022-11-15T05:01:51;7.20;69.54
72380;SHT30;60354;47.798;12.472;2022-11-15T05:04:34;7.22;69.47
72380;SHT30;60354;47.798;12.472;2022-11-15T05:07:18;7.23;69.23
72380;SHT30;60354;47.798;12.472;2022-11-15T05:10:02;7.20;69.33
72380;SHT30;60354;47.798;12.472;2022-11-15T05:12:47;7.19;69.50
72380;SHT30;60354;47.798;12.472;2022-11-15T05:15:31;7.13;69.86
72380;SHT30;60354;47.798;12.472;2022-11-15T05:18:15;7.11;70.00
72380;SHT30;60354;47.798;12.472;2022-11-15T05:21:03;7.06;69.84
72380;SHT30;60354;47.798;12.472;2022-11-15T05:23:47;7.02;70.31
72380;SHT30;60354;47.798;12.472;2022-11-15T05:26:31;6.96;70.60
72380;SHT30;60354;47.798;12.472;2022-11-15T05:29:15;6.93;70.42
72380;SHT30;60354;47.798;12.472;2022-11-15T05:31:59;6.98;70.35
72380;SHT30;60354;47.798;12.472;2022-11-15T05:34:44;6.93;70.46
72380;SHT30;60354;47.798;12.472;2022-11-15T05:37:28;6.92;70.64
72380;SHT30;60354;47.798;12.472;2022-11-15T05:40:13;6.87;70.77
72380;SHT30;60354;47.798;12.472;2022-11-15T05:42:57;6.89;71.16
72380;SHT30;60354;47.798;12.472;2022-11-15T05:45:43;6.84;71.16
72380;SHT30;60354;47.798;12.472;2022-11-15T05:48:27;6.85;71.23
72380;SHT30;60354;47.798;12.472;2022-11-15T05:51:12;6.85;71.20
72380;SHT30;60354;47.798;12.472;2022-11-15T05:53:58;6.81;71.30
72380;SHT30;60354;47.798;12.472;2022-11-15T05:56:42;6.80;71.32
72380;SHT30;60354;47.798;12.472;2022-11-15T05:59:29;6.81;70.73
72380;SHT30;60354;47.798;12.472;2022-11-15T06:02:13;6.81;70.92
72380;SHT30;60354;47.798;12.472;2022-11-15T06:04:57;6.88;70.84
72380;SHT30;60354;47.798;12.472;2022-11-15T06:07:41;6.81;71.04
72380;SHT30;60354;47.798;12.472;2022-11-15T06:10:26;6.81;70.76
72380;SHT30;60354;47.798;12.472;2022-11-15T06:13:10;6.87;70.86
72380;SHT30;60354;47.798;12.472;2022-11-15T06:15:55;6.84;70.87
72380;SHT30;60354;47.798;12.472;2022-11-15T06:18:40;6.84;70.68
72380;SHT30;60354;47.798;12.472;2022-11-15T06:21:24;6.84;70.64
72380;SHT30;60354;47.798;12.472;2022-11-15T06:24:08;6.88;70.30
72380;SHT30;60354;47.798;12.472;2022-11-15T06:26:52;6.91;69.96
72380;SHT30;60354;47.798;12.472;2022-11-15T06:29:36;6.88;70.24
72380;SHT30;60354;47.798;12.472;2022-11-15T06:32:20;6.88;70.73
72380;SHT30;60354;47.798;12.472;2022-11-15T06:35:05;6.81;70.49
72380;SHT30;60354;47.798;12.472;2022-11-15T06:37:49;6.80;70.74
72380;SHT30;60354;47.798;12.472;2022-11-15T06:40:34;6.80;70.83
72380;SHT30;60354;47.798;12.472;2022-11-15T06:43:19;6.78;70.66
72380;SHT30;60354;47.798;12.472;2022-11-15T06:46:04;6.75;70.75
72380;SHT30;60354;47.798;12.472;2022-11-15T06:48:51;6.85;70.02
72380;SHT30;60354;47.798;12.472;2022-11-15T06:51:35;6.98;69.51
72380;SHT30;60354;47.798;12.472;2022-11-15T06:54:19;6.98;69.35
72380;SHT30;60354;47.798;12.472;2022-11-15T06:57:04;7.02;69.25
72380;SHT30;60354;47.798;12.472;2022-11-15T06:59:48;7.06;69.20
72380;SHT30;60354;47.798;12.472;2022-11-15T07:02:32;7.05;69.39
72380;SHT30;60354;47.798;12.472;2022-11-15T07:05:16;7.02;69.26
72380;SHT30;60354;47.798;12.472;2022-11-15T07:08:00;6.99;70.18
72380;SHT30;60354;47.798;12.472;2022-11-15T07:10:45;6.95;70.49
72380;SHT30;60354;47.798;12.472;2022-11-15T07:13:31;6.88;70.02
72380;SHT30;60354;47.798;12.472;2022-11-15T07:16:18;6.89;69.96
72380;SHT30;60354;47.798;12.472;2022-11-15T07:19:03;6.89;70.12
72380;SHT30;60354;47.798;12.472;2022-11-15T07:21:47;6.89;69.83
72380;SHT30;60354;47.798;12.472;2022-11-15T07:24:31;6.98;69.53
72380;SHT30;60354;47.798;12.472;2022-11-15T07:27:14;7.13;68.99
72380;SHT30;60354;47.798;12.472;2022-11-15T07:29:59;7.22;68.96
72380;SHT30;60354;47.798;12.472;2022-11-15T07:32:43;7.24;69.08
72380;SHT30;60354;47.798;12.472;2022-11-15T07:35:28;7.29;69.21
72380;SHT30;60354;47.798;12.472;2022-11-15T07:38:12;7.32;69.14
72380;SHT30;60354;47.798;12.472;2022-11-15T07:40:57;7.33;69.56
72380;SHT30;60354;47.798;12.472;2022-11-15T07:43:41;7.40;68.98
72380;SHT30;60354;47.798;12.472;2022-11-15T07:46:25;7.39;68.99
72380;SHT30;60354;47.798;12.472;2022-11-15T07:49:09;7.42;68.79
72380;SHT30;60354;47.798;12.472;2022-11-15T07:51:53;7.47;68.96
72380;SHT30;60354;47.798;12.472;2022-11-15T07:54:38;7.50;68.56
72380;SHT30;60354;47.798;12.472;2022-11-15T07:57:22;7.59;68.72
72380;SHT30;60354;47.798;12.472;2022-11-15T08:00:06;7.62;68.41
72380;SHT30;60354;47.798;12.472;2022-11-15T08:02:50;7.73;68.30
72380;SHT30;60354;47.798;12.472;2022-11-15T08:05:35;7.75;68.26
72380;SHT30;60354;47.798;12.472;2022-11-15T08:08:19;7.75;68.07
72380;SHT30;60354;47.798;12.472;2022-11-15T08:11:03;7.80;67.77
72380;SHT30;60354;47.798;12.472;2022-11-15T08:13:47;7.81;68.00
72380;SHT30;60354;47.798;12.472;2022-11-15T08:16:31;7.85;68.08
72380;SHT30;60354;47.798;12.472;2022-11-15T08:19:15;7.91;68.45
72380;SHT30;60354;47.798;12.472;2022-11-15T08:21:59;8.02;68.17
72380;SHT30;60354;47.798;12.472;2022-11-15T08:24:44;8.25;67.50
72380;SHT30;60354;47.798;12.472;2022-11-15T08:27:28;8.56;66.87
72380;SHT30;60354;47.798;12.472;2022-11-15T08:30:12;8.97;65.35
72380;SHT30;60354;47.798;12.472;2022-11-15T08:32:58;9.30;64.84
72380;SHT30;60354;47.798;12.472;2022-11-15T08:35:44;9.55;64.30
72380;SHT30;60354;47.798;12.472;2022-11-15T08:38:28;9.75;63.14
72380;SHT30;60354;47.798;12.472;2022-11-15T08:41:22;9.85;63.04
72380;SHT30;60354;47.798;12.472;2022-11-15T08:44:07;9.93;61.99
72380;SHT30;60354;47.798;12.472;2022-11-15T08:46:51;10.05;61.83
72380;SHT30;60354;47.798;12.472;2022-11-15T08:49:35;10.20;61.52
72380;SHT30;60354;47.798;12.472;2022-11-15T08:52:22;10.32;62.26
72380;SHT30;60354;47.798;12.472;2022-11-15T08:55:09;10.37;61.64
72380;SHT30;60354;47.798;12.472;2022-11-15T08:57:53;10.41;59.99
72380;SHT30;60354;47.798;12.472;2022-11-15T09:00:37;10.51;60.31
72380;SHT30;60354;47.798;12.472;2022-11-15T09:03:21;10.58;60.13
72380;SHT30;60354;47.798;12.472;2022-11-15T09:06:05;10.65;60.89
72380;SHT30;60354;47.798;12.472;2022-11-15T09:08:49;10.69;61.32
72380;SHT30;60354;47.798;12.472;2022-11-15T09:11:33;10.75;61.01
72380;SHT30;60354;47.798;12.472;2022-11-15T09:14:16;10.85;60.51
72380;SHT30;60354;47.798;12.472;2022-11-15T09:17:00;10.89;60.77
72380;SHT30;60354;47.798;12.472;2022-11-15T09:19:45;10.94;61.89
72380;SHT30;60354;47.798;12.472;2022-11-15T09:22:29;11.04;61.99
72380;SHT30;60354;47.798;12.472;2022-11-15T09:25:12;11.14;60.81
72380;SHT30;60354;47.798;12.472;2022-11-15T09:27:57;11.19;60.52
72380;SHT30;60354;47.798;12.472;2022-11-15T09:30:41;11.32;60.75
72380;SHT30;60354;47.798;12.472;2022-11-15T09:33:25;11.40;59.15
72380;SHT30;60354;47.798;12.472;2022-11-15T09:36:10;11.50;58.54
72380;SHT30;60354;47.798;12.472;2022-11-15T09:38:54;11.56;59.05
72380;SHT30;60354;47.798;12.472;2022-11-15T09:42:08;11.67;59.83
72380;SHT30;60354;47.798;12.472;2022-11-15T09:45:31;11.78;58.70
72380;SHT30;60354;47.798;12.472;2022-11-15T09:51:53;11.69;61.54
72380;SHT30;60354;47.798;12.472;2022-11-15T09:54:27;11.74;61.47
72380;SHT30;60354;47.798;12.472;2022-11-15T09:56:56;11.77;63.33
72380;SHT30;60354;47.798;12.472;2022-11-15T10:05:28;11.97;60.06
72380;SHT30;60354;47.798;12.472;2022-11-15T10:08:17;12.02;61.40
72380;SHT30;60354;47.798;12.472;2022-11-15T10:10:47;12.15;60.69
72380;SHT30;60354;47.798;12.472;2022-11-15T10:13:27;12.26;59.79
72380;SHT30;60354;47.798;12.472;2022-11-15T10:19:14;12.44;57.09
72380;SHT30;60354;47.798;12.472;2022-11-15T10:33:29;12.80;55.89
72380;SHT30;60354;47.798;12.472;2022-11-15T10:43:44;13.03;56.39
72380;SHT30;60354;47.798;12.472;2022-11-15T10:46:29;13.02;54.34
72380;SHT30;60354;47.798;12.472;2022-11-15T10:49:38;13.08;54.81
72380;SHT30;60354;47.798;12.472;2022-11-15T10:52:20;13.14;55.60
72380;SHT30;60354;47.798;12.472;2022-11-15T10:57:54;13.18;55.84
72380;SHT30;60354;47.798;12.472;2022-11-15T11:05:29;13.37;53.49
72380;SHT30;60354;47.798;12.472;2022-11-15T11:07:58;13.43;53.71
72380;SHT30;60354;47.798;12.472;2022-11-15T11:10:24;13.44;53.14
72380;SHT30;60354;47.798;12.472;2022-11-15T11:12:50;13.50;52.86
72380;SHT30;60354;47.798;12.472;2022-11-15T11:15:17;13.31;53.55
72380;SHT30;60354;47.798;12.472;2022-11-15T11:20:43;13.43;52.31
72380;SHT30;60354;47.798;12.472;2022-11-15T11:38:01;13.68;54.45
72380;SHT30;60354;47.798;12.472;2022-11-15T11:40:37;13.68;54.77
72380;SHT30;60354;47.798;12.472;2022-11-15T11:48:48;13.64;56.34
72380;SHT30;60354;47.798;12.472;2022-11-15T11:51:24;13.72;56.40
72380;SHT30;60354;47.798;12.472;2022-11-15T11:54:03;13.71;56.07
72380;SHT30;60354;47.798;12.472;2022-11-15T11:56:36;13.59;56.63
72380;SHT30;60354;47.798;12.472;2022-11-15T11:59:23;13.48;56.94
72380;SHT30;60354;47.798;12.472;2022-11-15T12:01:50;13.54;57.24
72380;SHT30;60354;47.798;12.472;2022-11-15T12:04:36;13.61;56.99
72380;SHT30;60354;47.798;12.472;2022-11-15T12:07:17;13.68;57.03
72380;SHT30;60354;47.798;12.472;2022-11-15T12:12:41;13.83;56.77
72380;SHT30;60354;47.798;12.472;2022-11-15T12:15:14;13.88;56.98
72380;SHT30;60354;47.798;12.472;2022-11-15T12:17:41;13.90;57.07
72380;SHT30;60354;47.798;12.472;2022-11-15T12:20:16;13.94;56.28
72380;SHT30;60354;47.798;12.472;2022-11-15T12:22:59;13.99;56.52
72380;SHT30;60354;47.798;12.472;2022-11-15T12:25:44;14.02;56.36
72380;SHT30;60354;47.798;12.472;2022-11-15T12:28:24;14.04;56.27
72380;SHT30;60354;47.798;12.472;2022-11-15T12:31:11;14.05;56.39
72380;SHT30;60354;47.798;12.472;2022-11-15T12:33:43;13.98;55.54
72380;SHT30;60354;47.798;12.472;2022-11-15T12:36:12;13.98;57.67
72380;SHT30;60354;47.798;12.472;2022-11-15T12:39:08;13.96;57.00
72380;SHT30;60354;47.798;12.472;2022-11-15T12:41:37;14.01;56.51
72380;SHT30;60354;47.798;12.472;2022-11-15T12:44:03;14.01;56.40
72380;SHT30;60354;47.798;12.472;2022-11-15T12:51:22;14.08;56.62
72380;SHT30;60354;47.798;12.472;2022-11-15T13:02:33;14.06;58.50
72380;SHT30;60354;47.798;12.472;2022-11-15T13:17:43;14.02;61.39
72380;SHT30;60354;47.798;12.472;2022-11-15T13:28:01;13.86;63.81
72380;SHT30;60354;47.798;12.472;2022-11-15T13:30:29;13.83;63.52
72380;SHT30;60354;47.798;12.472;2022-11-15T13:32:58;13.79;63.50
72380;SHT30;60354;47.798;12.472;2022-11-15T13:35:28;13.74;64.02
72380;SHT30;60354;47.798;12.472;2022-11-15T13:37:55;13.71;64.06
72380;SHT30;60354;47.798;12.472;2022-11-15T13:40:25;13.64;63.79
72380;SHT30;60354;47.798;12.472;2022-11-15T13:42:53;13.62;63.40
72380;SHT30;60354;47.798;12.472;2022-11-15T13:45:19;13.59;63.67
72380;SHT30;60354;47.798;12.472;2022-11-15T13:47:51;13.61;63.65
72380;SHT30;60354;47.798;12.472;2022-11-15T13:50:16;13.61;62.49
72380;SHT30;60354;47.798;12.472;2022-11-15T13:52:44;13.55;62.81
72380;SHT30;60354;47.798;12.472;2022-11-15T13:55:17;13.50;63.27
72380;SHT30;60354;47.798;12.472;2022-11-15T13:57:56;13.45;63.30
72380;SHT30;60354;47.798;12.472;2022-11-15T14:02:54;13.33;64.18
72380;SHT30;60354;47.798;12.472;2022-11-15T14:05:22;13.30;64.82
72380;SHT30;60354;47.798;12.472;2022-11-15T14:08:03;13.24;65.38
72380;SHT30;60354;47.798;12.472;2022-11-15T14:10:34;13.16;65.69
72380;SHT30;60354;47.798;12.472;2022-11-15T14:13:04;13.11;65.60
72380;SHT30;60354;47.798;12.472;2022-11-15T14:15:38;13.10;65.39
72380;SHT30;60354;47.798;12.472;2022-11-15T14:18:05;13.04;65.68
72380;SHT30;60354;47.798;12.472;2022-11-15T14:20:36;12.99;65.79
72380;SHT30;60354;47.798;12.472;2022-11-15T14:23:26;12.92;65.98
72380;SHT30;60354;47.798;12.472;2022-11-15T14:25:58;12.86;66.05
72380;SHT30;60354;47.798;12.472;2022-11-15T14:30:51;12.77;66.17
72380;SHT30;60354;47.798;12.472;2022-11-15T14:33:18;12.76;66.21
72380;SHT30;60354;47.798;12.472;2022-11-15T14:35:44;12.67;66.60
72380;SHT30;60354;47.798;12.472;2022-11-15T14:38:10;12.66;66.73
72380;SHT30;60354;47.798;12.472;2022-11-15T14:40:35;12.60;66.80
72380;SHT30;60354;47.798;12.472;2022-11-15T14:43:01;12.52;67.60
72380;SHT30;60354;47.798;12.472;2022-11-15T14:45:27;12.44;67.39
72380;SHT30;60354;47.798;12.472;2022-11-15T14:47:52;12.38;67.47
72380;SHT30;60354;47.798;12.472;2022-11-15T14:50:20;12.31;67.46
72380;SHT30;60354;47.798;12.472;2022-11-15T14:52:46;12.17;67.62
72380;SHT30;60354;47.798;12.472;2022-11-15T14:55:21;11.98;68.23
72380;SHT30;60354;47.798;12.472;2022-11-15T14:57:48;11.86;68.19
72380;SHT30;60354;47.798;12.472;2022-11-15T15:00:14;11.73;68.61
72380;SHT30;60354;47.798;12.472;2022-11-15T15:02:42;11.62;68.99
72380;SHT30;60354;47.798;12.472;2022-11-15T15:05:16;11.53;69.34
72380;SHT30;60354;47.798;12.472;2022-11-15T15:07:42;11.44;69.65
72380;SHT30;60354;47.798;12.472;2022-11-15T15:10:08;11.36;70.30
72380;SHT30;60354;47.798;12.472;2022-11-15T15:12:34;11.22;70.67
72380;SHT30;60354;47.798;12.472;2022-11-15T15:14:59;11.16;71.22
72380;SHT30;60354;47.798;12.472;2022-11-15T15:17:25;11.11;71.46
72380;SHT30;60354;47.798;12.472;2022-11-15T15:19:50;10.99;72.34
72380;SHT30;60354;47.798;12.472;2022-11-15T15:22:18;10.96;72.27
72380;SHT30;60354;47.798;12.472;2022-11-15T15:24:44;10.96;72.26
72380;SHT30;60354;47.798;12.472;2022-11-15T15:27:11;10.95;72.39
72380;SHT30;60354;47.798;12.472;2022-11-15T15:29:37;10.94;72.67
72380;SHT30;60354;47.798;12.472;2022-11-15T15:32:02;11.23;74.08
72380;SHT30;60354;47.798;12.472;2022-11-15T15:34:28;11.12;72.00
72380;SHT30;60354;47.798;12.472;2022-11-15T15:37:26;11.01;72.30
72380;SHT30;60354;47.798;12.472;2022-11-15T15:39:56;10.96;73.40
72380;SHT30;60354;47.798;12.472;2022-11-15T15:42:22;10.88;72.96
72380;SHT30;60354;47.798;12.472;2022-11-15T15:44:49;10.82;72.98
72380;SHT30;60354;47.798;12.472;2022-11-15T15:47:21;10.61;73.15
72380;SHT30;60354;47.798;12.472;2022-11-15T15:49:47;10.44;73.78
72380;SHT30;60354;47.798;12.472;2022-11-15T15:52:13;10.37;73.07
72380;SHT30;60354;47.798;12.472;2022-11-15T15:54:39;10.30;73.81
72380;SHT30;60354;47.798;12.472;2022-11-15T15:57:06;10.20;74.32
72380;SHT30;60354;47.798;12.472;2022-11-15T15:59:31;10.21;73.72
72380;SHT30;60354;47.798;12.472;2022-11-15T16:01:57;10.17;73.88
72380;SHT30;60354;47.798;12.472;2022-11-15T16:04:22;10.16;74.05
72380;SHT30;60354;47.798;12.472;2022-11-15T16:06:48;10.16;73.97
72380;SHT30;60354;47.798;12.472;2022-11-15T16:09:18;10.10;74.16
72380;SHT30;60354;47.798;12.472;2022-11-15T16:11:45;10.09;74.18
72380;SHT30;60354;47.798;12.472;2022-11-15T16:14:10;10.06;74.37
72380;SHT30;60354;47.798;12.472;2022-11-15T16:16:36;9.95;74.54
72380;SHT30;60354;47.798;12.472;2022-11-15T16:19:03;9.92;74.40
72380;SHT30;60354;47.798;12.472;2022-11-15T16:21:28;9.71;74.81
72380;SHT30;60354;47.798;12.472;2022-11-15T16:23:54;9.58;73.95
72380;SHT30;60354;47.798;12.472;2022-11-15T16:26:22;9.56;73.94
72380;SHT30;60354;47.798;12.472;2022-11-15T16:28:49;9.59;73.36
72380;SHT30;60354;47.798;12.472;2022-11-15T16:31:14;9.58;73.75
72380;SHT30;60354;47.798;12.472;2022-11-15T16:33:42;9.52;74.44
72380;SHT30;60354;47.798;12.472;2022-11-15T16:36:26;9.51;74.05
72380;SHT30;60354;47.798;12.472;2022-11-15T16:38:52;9.52;74.26
72380;SHT30;60354;47.798;12.472;2022-11-15T16:41:18;9.49;74.00
72380;SHT30;60354;47.798;12.472;2022-11-15T16:43:47;9.48;73.96
72380;SHT30;60354;47.798;12.472;2022-11-15T16:46:25;9.38;74.03
72380;SHT30;60354;47.798;12.472;2022-11-15T16:48:51;9.30;74.66
72380;SHT30;60354;47.798;12.472;2022-11-15T16:51:18;9.24;73.59
72380;SHT30;60354;47.798;12.472;2022-11-15T16:53:44;9.17;74.14
72380;SHT30;60354;47.798;12.472;2022-11-15T16:56:28;9.15;73.85
72380;SHT30;60354;47.798;12.472;2022-11-15T16:58:55;9.11;74.45
72380;SHT30;60354;47.798;12.472;2022-11-15T17:01:35;9.17;75.51
72380;SHT30;60354;47.798;12.472;2022-11-15T17:04:02;9.17;74.80
72380;SHT30;60354;47.798;12.472;2022-11-15T17:06:38;9.13;74.27
72380;SHT30;60354;47.798;12.472;2022-11-15T17:09:05;9.03;74.97
72380;SHT30;60354;47.798;12.472;2022-11-15T17:11:31;8.83;75.59
72380;SHT30;60354;47.798;12.472;2022-11-15T17:13:57;8.80;74.42
72380;SHT30;60354;47.798;12.472;2022-11-15T17:16:24;8.64;74.68
72380;SHT30;60354;47.798;12.472;2022-11-15T17:18:50;8.69;75.90
72380;SHT30;60354;47.798;12.472;2022-11-15T17:21:18;8.73;75.37
72380;SHT30;60354;47.798;12.472;2022-11-15T17:23:44;8.72;76.85
72380;SHT30;60354;47.798;12.472;2022-11-15T17:26:11;8.63;76.38
72380;SHT30;60354;47.798;12.472;2022-11-15T17:28:37;8.35;77.38
72380;SHT30;60354;47.798;12.472;2022-11-15T17:31:10;8.18;76.78
72380;SHT30;60354;47.798;12.472;2022-11-15T17:33:37;8.08;78.00
72380;SHT30;60354;47.798;12.472;2022-11-15T17:36:06;7.78;77.71
72380;SHT30;60354;47.798;12.472;2022-11-15T17:38:32;7.90;78.78
72380;SHT30;60354;47.798;12.472;2022-11-15T17:43:26;8.02;76.28
72380;SHT30;60354;47.798;12.472;2022-11-15T17:45:51;8.08;76.40
72380;SHT30;60354;47.798;12.472;2022-11-15T17:48:17;8.06;78.27
72380;SHT30;60354;47.798;12.472;2022-11-15T17:50:42;8.01;77.85
72380;SHT30;60354;47.798;12.472;2022-11-15T17:53:08;7.99;77.23
72380;SHT30;60354;47.798;12.472;2022-11-15T17:55:34;7.99;78.42
72380;SHT30;60354;47.798;12.472;2022-11-15T17:57:59;8.02;78.94
72380;SHT30;60354;47.798;12.472;2022-11-15T18:00:25;8.01;78.21
72380;SHT30;60354;47.798;12.472;2022-11-15T18:02:50;7.91;77.20
72380;SHT30;60354;47.798;12.472;2022-11-15T18:05:15;8.01;78.59
72380;SHT30;60354;47.798;12.472;2022-11-15T18:07:41;7.93;77.89
72380;SHT30;60354;47.798;12.472;2022-11-15T18:10:07;7.81;76.62
72380;SHT30;60354;47.798;12.472;2022-11-15T18:12:32;7.90;77.67
72380;SHT30;60354;47.798;12.472;2022-11-15T18:14:58;7.83;77.45
72380;SHT30;60354;47.798;12.472;2022-11-15T18:17:24;7.71;78.89
72380;SHT30;60354;47.798;12.472;2022-11-15T18:19:49;7.60;79.30
72380;SHT30;60354;47.798;12.472;2022-11-15T18:22:15;7.66;79.93
72380;SHT30;60354;47.798;12.472;2022-11-15T18:24:40;7.73;78.86
72380;SHT30;60354;47.798;12.472;2022-11-15T18:27:08;7.75;78.75
72380;SHT30;60354;47.798;12.472;2022-11-15T18:29:33;7.73;77.76
72380;SHT30;60354;47.798;12.472;2022-11-15T18:32:03;7.70;78.18
72380;SHT30;60354;47.798;12.472;2022-11-15T18:34:31;7.77;79.12
72380;SHT30;60354;47.798;12.472;2022-11-15T18:37:01;7.77;78.35
72380;SHT30;60354;47.798;12.472;2022-11-15T18:39:27;7.67;78.58
72380;SHT30;60354;47.798;12.472;2022-11-15T18:41:53;7.39;79.47
72380;SHT30;60354;47.798;12.472;2022-11-15T18:44:18;7.39;79.81
72380;SHT30;60354;47.798;12.472;2022-11-15T18:46:44;7.37;78.40
72380;SHT30;60354;47.798;12.472;2022-11-15T18:49:11;7.46;80.25